Search for airport 
image banner adimage banner adimage banner ad
image banner ad

KEDW - Edwards Afb

Located in Edwards, United States

ICAO - EDW, IATA -

Data provided by Airmate  

General information

Coordinates: N34°54'29" W117°53'8"
Elevation is 2311 feet MSL.
Magnetic variation is 12° East
View others Airports in California

Operational data

Special qualification required
Current time UTC:
Current local time:
Weather
METAR: KEDW 221356Z 22005KT 50SM SCT150 22/02 A2992 RMK AO2A SLP106 T02170019
TAF: TAF KEDW 221300Z 2213/2319 VRB06KT 9999 FEW150 BKN300 QNH2994INS BECMG 2216/2217 22012KT 9999 FEW150 BKN300 QNH2993INS BECMG 2218/2219 22015G25KT 9999 FEW150 BKN300 520009 520903 QNH2992INS BECMG 2302/2303 22009KT 9999 FEW150 BKN300 QNH2991INS BECMG 2304/2305 VRB06KT 9999 FEW150 BKN300 QNH2990INS BECMG 2309/2310 VRB06KT 9999 VCSH SCT050 BKN150 BKN300 QNH2990INS BECMG 2316/2317 VRB06KT 9999 VCSH SCT050 BKN150 BKN300 QNH2990INS TS DSNT E-SE TX36/2223Z TN20/2313Z
View NOTAMs / SUP AIP / TFR affecting this airport [VIEW]
Communications frequencies: [VIEW]

Runways:

RWY identifierQFULength (ft)Width (ft)SurfaceLDA (ft)
0221119300UNK
2021119300UNK
05L12000200ASPH
23R12000200ASPH
05R58°15024300CONC
23L238°15024300CONC
07800050CONC
25800050CONC

Airport contact information

Address: Edwards United States

Other aviation service providers

Flight schools

Edwards Afb Aero Club

Edwards Afb Aero Club
+1(661)275-2376

Satellite view of KEDW